sensor_id;sensor_type;location;lat;lon;timestamp;pressure;altitude;pressure_sealevel;temperature;humidity
63447;BME280;49577;49.872;6.190;2024-03-06T00:02:17;99625.27;;;1.33;84.50
63447;BME280;49577;49.872;6.190;2024-03-06T00:04:43;99624.10;;;1.32;84.58
63447;BME280;49577;49.872;6.190;2024-03-06T00:07:08;99631.17;;;1.32;84.73
63447;BME280;49577;49.872;6.190;2024-03-06T00:09:33;99631.40;;;1.30;84.52
63447;BME280;49577;49.872;6.190;2024-03-06T00:11:58;99632.00;;;1.25;84.23
63447;BME280;49577;49.872;6.190;2024-03-06T00:14:25;99633.30;;;1.22;84.60
63447;BME280;49577;49.872;6.190;2024-03-06T00:16:50;99639.35;;;1.20;84.69
63447;BME280;49577;49.872;6.190;2024-03-06T00:19:16;99638.40;;;1.17;84.46
63447;BME280;49577;49.872;6.190;2024-03-06T00:21:41;99640.16;;;1.15;84.44
63447;BME280;49577;49.872;6.190;2024-03-06T00:24:07;99643.42;;;1.16;84.73
63447;BME280;49577;49.872;6.190;2024-03-06T00:26:32;99642.19;;;1.17;84.83
63447;BME280;49577;49.872;6.190;2024-03-06T00:28:57;99649.38;;;1.18;84.98
63447;BME280;49577;49.872;6.190;2024-03-06T00:31:22;99651.71;;;1.22;85.13
63447;BME280;49577;49.872;6.190;2024-03-06T00:33:48;99655.60;;;1.24;84.97
63447;BME280;49577;49.872;6.190;2024-03-06T00:36:13;99661.96;;;1.25;84.83
63447;BME280;49577;49.872;6.190;2024-03-06T00:38:38;99665.15;;;1.28;85.13
63447;BME280;49577;49.872;6.190;2024-03-06T00:41:03;99675.23;;;1.32;85.39
63447;BME280;49577;49.872;6.190;2024-03-06T00:43:29;99674.88;;;1.39;85.59
63447;BME280;49577;49.872;6.190;2024-03-06T00:45:54;99681.40;;;1.47;85.48
63447;BME280;49577;49.872;6.190;2024-03-06T00:48:19;99682.29;;;1.53;85.35
63447;BME280;49577;49.872;6.190;2024-03-06T00:50:45;99683.91;;;1.57;85.12
63447;BME280;49577;49.872;6.190;2024-03-06T00:53:10;99687.49;;;1.58;85.14
63447;BME280;49577;49.872;6.190;2024-03-06T00:55:36;99685.70;;;1.61;85.20
63447;BME280;49577;49.872;6.190;2024-03-06T00:58:01;99689.63;;;1.63;85.12
63447;BME280;49577;49.872;6.190;2024-03-06T01:00:26;99691.83;;;1.63;85.16
63447;BME280;49577;49.872;6.190;2024-03-06T01:02:52;99690.08;;;1.65;85.29
63447;BME280;49577;49.872;6.190;2024-03-06T01:05:17;99691.27;;;1.66;85.06
63447;BME280;49577;49.872;6.190;2024-03-06T01:07:42;99690.05;;;1.66;85.12
63447;BME280;49577;49.872;6.190;2024-03-06T01:10:08;99691.34;;;1.69;85.29
63447;BME280;49577;49.872;6.190;2024-03-06T01:12:34;99693.50;;;1.72;85.22
63447;BME280;49577;49.872;6.190;2024-03-06T01:14:59;99692.38;;;1.76;85.36
63447;BME280;49577;49.872;6.190;2024-03-06T01:17:24;99691.43;;;1.79;85.27
63447;BME280;49577;49.872;6.190;2024-03-06T01:19:50;99688.78;;;1.82;85.16
63447;BME280;49577;49.872;6.190;2024-03-06T01:22:15;99692.10;;;1.80;84.94
63447;BME280;49577;49.872;6.190;2024-03-06T01:24:41;99696.29;;;1.78;84.95
63447;BME280;49577;49.872;6.190;2024-03-06T01:27:06;99696.15;;;1.76;85.17
63447;BME280;49577;49.872;6.190;2024-03-06T01:29:31;99696.96;;;1.78;85.40
63447;BME280;49577;49.872;6.190;2024-03-06T01:31:57;99693.12;;;1.81;85.41
63447;BME280;49577;49.872;6.190;2024-03-06T01:34:22;99685.70;;;1.81;85.29
63447;BME280;49577;49.872;6.190;2024-03-06T01:36:48;99686.96;;;1.79;85.25
63447;BME280;49577;49.872;6.190;2024-03-06T01:39:13;99686.64;;;1.77;85.40
63447;BME280;49577;49.872;6.190;2024-03-06T01:41:44;99682.83;;;1.79;85.64
63447;BME280;49577;49.872;6.190;2024-03-06T01:44:09;99681.77;;;1.80;85.45
63447;BME280;49577;49.872;6.190;2024-03-06T01:46:34;99685.67;;;1.75;85.16
63447;BME280;49577;49.872;6.190;2024-03-06T01:49:00;99684.24;;;1.70;85.15
63447;BME280;49577;49.872;6.190;2024-03-06T01:51:25;99685.70;;;1.67;85.42
63447;BME280;49577;49.872;6.190;2024-03-06T01:53:51;99681.23;;;1.67;85.72
63447;BME280;49577;49.872;6.190;2024-03-06T01:56:16;99679.98;;;1.69;86.04
63447;BME280;49577;49.872;6.190;2024-03-06T01:58:42;99678.42;;;1.70;85.96
63447;BME280;49577;49.872;6.190;2024-03-06T02:01:09;99682.88;;;1.70;85.96
63447;BME280;49577;49.872;6.190;2024-03-06T02:03:35;99681.67;;;1.70;86.05
63447;BME280;49577;49.872;6.190;2024-03-06T02:06:00;99679.51;;;1.74;86.41
63447;BME280;49577;49.872;6.190;2024-03-06T02:08:27;99674.19;;;1.81;86.57
63447;BME280;49577;49.872;6.190;2024-03-06T02:10:52;99671.98;;;1.86;86.30
63447;BME280;49577;49.872;6.190;2024-03-06T02:13:17;99673.50;;;1.87;86.00
63447;BME280;49577;49.872;6.190;2024-03-06T02:15:44;99675.73;;;1.87;85.88
63447;BME280;49577;49.872;6.190;2024-03-06T02:18:10;99673.31;;;1.87;86.14
63447;BME280;49577;49.872;6.190;2024-03-06T02:20:37;99674.52;;;1.88;86.14
63447;BME280;49577;49.872;6.190;2024-03-06T02:23:03;99678.64;;;1.89;86.38
63447;BME280;49577;49.872;6.190;2024-03-06T02:25:28;99679.95;;;1.90;86.48
63447;BME280;49577;49.872;6.190;2024-03-06T02:27:53;99682.75;;;1.89;86.12
63447;BME280;49577;49.872;6.190;2024-03-06T02:30:19;99685.19;;;1.88;86.26
63447;BME280;49577;49.872;6.190;2024-03-06T02:32:44;99683.27;;;1.89;86.40
63447;BME280;49577;49.872;6.190;2024-03-06T02:35:10;99683.08;;;1.90;86.54
63447;BME280;49577;49.872;6.190;2024-03-06T02:37:35;99683.71;;;1.91;86.55
63447;BME280;49577;49.872;6.190;2024-03-06T02:40:00;99684.02;;;1.93;86.60
63447;BME280;49577;49.872;6.190;2024-03-06T02:42:27;99687.42;;;1.94;86.40
63447;BME280;49577;49.872;6.190;2024-03-06T02:44:52;99689.30;;;1.95;86.39
63447;BME280;49577;49.872;6.190;2024-03-06T02:47:18;99692.83;;;1.99;86.62
63447;BME280;49577;49.872;6.190;2024-03-06T02:49:44;99695.95;;;2.04;86.86
63447;BME280;49577;49.872;6.190;2024-03-06T02:52:10;99703.76;;;2.09;86.85
63447;BME280;49577;49.872;6.190;2024-03-06T02:54:35;99709.91;;;2.11;86.83
63447;BME280;49577;49.872;6.190;2024-03-06T02:57:00;99716.34;;;2.15;86.90
63447;BME280;49577;49.872;6.190;2024-03-06T02:59:26;99720.99;;;2.15;86.63
63447;BME280;49577;49.872;6.190;2024-03-06T03:01:51;99715.48;;;2.15;86.67
63447;BME280;49577;49.872;6.190;2024-03-06T03:04:16;99716.85;;;2.16;86.82
63447;BME280;49577;49.872;6.190;2024-03-06T03:06:42;99711.50;;;2.16;86.85
63447;BME280;49577;49.872;6.190;2024-03-06T03:09:07;99712.05;;;2.15;86.79
63447;BME280;49577;49.872;6.190;2024-03-06T03:11:36;99710.30;;;2.16;86.97
63447;BME280;49577;49.872;6.190;2024-03-06T03:14:01;99710.27;;;2.17;87.06
63447;BME280;49577;49.872;6.190;2024-03-06T03:16:27;99713.65;;;2.19;87.14
63447;BME280;49577;49.872;6.190;2024-03-06T03:18:52;99715.42;;;2.24;87.14
63447;BME280;49577;49.872;6.190;2024-03-06T03:21:17;99717.10;;;2.25;87.02
63447;BME280;49577;49.872;6.190;2024-03-06T03:23:43;99716.73;;;2.26;86.99
63447;BME280;49577;49.872;6.190;2024-03-06T03:26:08;99718.21;;;2.29;87.14
63447;BME280;49577;49.872;6.190;2024-03-06T03:28:39;99716.05;;;2.33;87.07
63447;BME280;49577;49.872;6.190;2024-03-06T03:31:06;99718.21;;;2.35;86.82
63447;BME280;49577;49.872;6.190;2024-03-06T03:33:31;99720.33;;;2.34;86.73
63447;BME280;49577;49.872;6.190;2024-03-06T03:35:56;99726.05;;;2.32;86.74
63447;BME280;49577;49.872;6.190;2024-03-06T03:38:21;99724.08;;;2.29;86.62
63447;BME280;49577;49.872;6.190;2024-03-06T03:40:47;99724.54;;;2.24;86.40
63447;BME280;49577;49.872;6.190;2024-03-06T03:43:12;99722.52;;;2.16;86.57
63447;BME280;49577;49.872;6.190;2024-03-06T03:45:37;99722.48;;;2.11;86.64
63447;BME280;49577;49.872;6.190;2024-03-06T03:48:04;99728.81;;;2.07;86.71
63447;BME280;49577;49.872;6.190;2024-03-06T03:50:29;99724.38;;;2.04;86.78
63447;BME280;49577;49.872;6.190;2024-03-06T03:52:55;99733.39;;;2.02;86.76
63447;BME280;49577;49.872;6.190;2024-03-06T03:55:23;99739.70;;;2.04;86.85
63447;BME280;49577;49.872;6.190;2024-03-06T03:57:48;99740.84;;;2.07;86.79
63447;BME280;49577;49.872;6.190;2024-03-06T04:00:13;99739.77;;;2.09;86.77
63447;BME280;49577;49.872;6.190;2024-03-06T04:02:39;99740.62;;;2.09;86.72
63447;BME280;49577;49.872;6.190;2024-03-06T04:05:04;99744.20;;;2.11;86.75
63447;BME280;49577;49.872;6.190;2024-03-06T04:07:30;99749.90;;;2.10;86.60
63447;BME280;49577;49.872;6.190;2024-03-06T04:09:55;99749.55;;;2.11;86.53
63447;BME280;49577;49.872;6.190;2024-03-06T04:12:20;99751.20;;;2.13;86.67
63447;BME280;49577;49.872;6.190;2024-03-06T04:14:45;99751.16;;;2.14;86.74
63447;BME280;49577;49.872;6.190;2024-03-06T04:17:10;99753.27;;;2.13;86.71
63447;BME280;49577;49.872;6.190;2024-03-06T04:19:36;99752.83;;;2.11;86.55
63447;BME280;49577;49.872;6.190;2024-03-06T04:22:01;99753.88;;;2.10;86.68
63447;BME280;49577;49.872;6.190;2024-03-06T04:24:27;99754.04;;;2.10;86.53
63447;BME280;49577;49.872;6.190;2024-03-06T04:26:52;99757.75;;;2.07;86.52
63447;BME280;49577;49.872;6.190;2024-03-06T04:29:17;99759.02;;;2.04;86.41
63447;BME280;49577;49.872;6.190;2024-03-06T04:31:43;99759.61;;;2.02;86.41
63447;BME280;49577;49.872;6.190;2024-03-06T04:34:08;99764.97;;;2.00;86.44
63447;BME280;49577;49.872;6.190;2024-03-06T04:36:33;99763.95;;;2.00;86.56
63447;BME280;49577;49.872;6.190;2024-03-06T04:38:59;99764.52;;;1.98;86.30
63447;BME280;49577;49.872;6.190;2024-03-06T04:41:24;99759.98;;;1.94;85.92
63447;BME280;49577;49.872;6.190;2024-03-06T04:43:49;99767.25;;;1.92;86.22
63447;BME280;49577;49.872;6.190;2024-03-06T04:46:16;99770.34;;;1.92;86.26
63447;BME280;49577;49.872;6.190;2024-03-06T04:48:41;99772.63;;;1.90;86.21
63447;BME280;49577;49.872;6.190;2024-03-06T04:51:06;99770.89;;;1.91;86.41
63447;BME280;49577;49.872;6.190;2024-03-06T04:53:31;99774.88;;;1.90;86.26
63447;BME280;49577;49.872;6.190;2024-03-06T04:55:57;99778.13;;;1.91;86.19
63447;BME280;49577;49.872;6.190;2024-03-06T04:58:22;99785.52;;;1.91;86.12
63447;BME280;49577;49.872;6.190;2024-03-06T05:00:47;99786.02;;;1.92;86.09
63447;BME280;49577;49.872;6.190;2024-03-06T05:03:12;99785.84;;;1.93;86.17
63447;BME280;49577;49.872;6.190;2024-03-06T05:05:38;99788.47;;;1.98;86.70
63447;BME280;49577;49.872;6.190;2024-03-06T05:08:05;99791.73;;;2.05;86.77
63447;BME280;49577;49.872;6.190;2024-03-06T05:10:32;99789.02;;;2.04;85.82
63447;BME280;49577;49.872;6.190;2024-03-06T05:12:57;99798.07;;;2.00;85.68
63447;BME280;49577;49.872;6.190;2024-03-06T05:15:22;99803.80;;;1.84;84.75
63447;BME280;49577;49.872;6.190;2024-03-06T05:17:47;99809.25;;;1.64;85.08
63447;BME280;49577;49.872;6.190;2024-03-06T05:20:13;99809.84;;;1.61;86.04
63447;BME280;49577;49.872;6.190;2024-03-06T05:22:39;99810.58;;;1.66;86.84
63447;BME280;49577;49.872;6.190;2024-03-06T05:25:04;99810.96;;;1.79;87.20
63447;BME280;49577;49.872;6.190;2024-03-06T05:27:30;99813.05;;;1.93;86.91
63447;BME280;49577;49.872;6.190;2024-03-06T05:29:56;99812.30;;;2.03;86.41
63447;BME280;49577;49.872;6.190;2024-03-06T05:32:21;99815.30;;;2.07;86.04
63447;BME280;49577;49.872;6.190;2024-03-06T05:34:46;99816.32;;;2.07;85.68
63447;BME280;49577;49.872;6.190;2024-03-06T05:37:11;99818.21;;;2.08;85.58
63447;BME280;49577;49.872;6.190;2024-03-06T05:39:37;99827.44;;;2.03;85.26
63447;BME280;49577;49.872;6.190;2024-03-06T05:42:03;99830.98;;;1.99;85.10
63447;BME280;49577;49.872;6.190;2024-03-06T05:44:29;99825.02;;;1.96;85.30
63447;BME280;49577;49.872;6.190;2024-03-06T05:46:55;99827.23;;;1.91;85.12
63447;BME280;49577;49.872;6.190;2024-03-06T05:49:20;99830.15;;;1.84;84.93
63447;BME280;49577;49.872;6.190;2024-03-06T05:51:46;99836.79;;;1.80;85.07
63447;BME280;49577;49.872;6.190;2024-03-06T05:54:11;99838.61;;;1.76;84.91
63447;BME280;49577;49.872;6.190;2024-03-06T05:56:36;99844.94;;;1.70;84.88
63447;BME280;49577;49.872;6.190;2024-03-06T05:59:01;99845.90;;;1.66;84.97
63447;BME280;49577;49.872;6.190;2024-03-06T06:01:30;99848.35;;;1.63;85.20
63447;BME280;49577;49.872;6.190;2024-03-06T06:03:55;99855.75;;;1.64;85.60
63447;BME280;49577;49.872;6.190;2024-03-06T06:06:21;99861.73;;;1.66;85.89
63447;BME280;49577;49.872;6.190;2024-03-06T06:08:46;99865.45;;;1.77;86.59
63447;BME280;49577;49.872;6.190;2024-03-06T06:11:11;99874.58;;;1.85;86.05
63447;BME280;49577;49.872;6.190;2024-03-06T06:13:36;99881.92;;;1.87;85.67
63447;BME280;49577;49.872;6.190;2024-03-06T06:16:02;99884.27;;;1.83;85.51
63447;BME280;49577;49.872;6.190;2024-03-06T06:18:30;99884.58;;;1.84;85.80
63447;BME280;49577;49.872;6.190;2024-03-06T06:20:57;99886.27;;;1.85;85.90
63447;BME280;49577;49.872;6.190;2024-03-06T06:23:22;99890.19;;;1.87;86.13
63447;BME280;49577;49.872;6.190;2024-03-06T06:25:47;99890.15;;;1.89;86.29
63447;BME280;49577;49.872;6.190;2024-03-06T06:28:12;99892.55;;;1.96;86.76
63447;BME280;49577;49.872;6.190;2024-03-06T06:30:38;99889.36;;;2.00;86.50
63447;BME280;49577;49.872;6.190;2024-03-06T06:33:03;99893.95;;;2.04;86.43
63447;BME280;49577;49.872;6.190;2024-03-06T06:35:29;99888.95;;;2.11;86.65
63447;BME280;49577;49.872;6.190;2024-03-06T06:37:54;99897.81;;;2.15;86.36
63447;BME280;49577;49.872;6.190;2024-03-06T06:40:20;99895.66;;;2.19;86.26
63447;BME280;49577;49.872;6.190;2024-03-06T06:42:45;99897.50;;;2.21;86.12
63447;BME280;49577;49.872;6.190;2024-03-06T06:45:14;99901.30;;;2.21;85.62
63447;BME280;49577;49.872;6.190;2024-03-06T06:47:39;99906.84;;;2.20;85.60
63447;BME280;49577;49.872;6.190;2024-03-06T06:50:05;99910.52;;;2.17;85.56
63447;BME280;49577;49.872;6.190;2024-03-06T06:52:30;99914.87;;;2.15;85.42
63447;BME280;49577;49.872;6.190;2024-03-06T06:54:58;99919.42;;;2.12;85.34
63447;BME280;49577;49.872;6.190;2024-03-06T06:57:23;99922.07;;;2.10;85.41
63447;BME280;49577;49.872;6.190;2024-03-06T06:59:49;99922.23;;;2.10;85.56
63447;BME280;49577;49.872;6.190;2024-03-06T07:02:14;99925.13;;;2.18;85.87
63447;BME280;49577;49.872;6.190;2024-03-06T07:04:40;99927.61;;;2.23;85.43
63447;BME280;49577;49.872;6.190;2024-03-06T07:07:05;99927.16;;;2.35;85.72
63447;BME280;49577;49.872;6.190;2024-03-06T07:09:30;99932.70;;;2.48;85.28
63447;BME280;49577;49.872;6.190;2024-03-06T07:11:55;99940.54;;;2.52;84.48
63447;BME280;49577;49.872;6.190;2024-03-06T07:14:21;99944.69;;;2.51;84.13
63447;BME280;49577;49.872;6.190;2024-03-06T07:16:46;99945.23;;;2.50;84.08
63447;BME280;49577;49.872;6.190;2024-03-06T07:19:12;99945.74;;;2.44;83.30
63447;BME280;49577;49.872;6.190;2024-03-06T07:21:37;99946.39;;;2.31;83.04
63447;BME280;49577;49.872;6.190;2024-03-06T07:24:03;99947.67;;;2.27;83.90
63447;BME280;49577;49.872;6.190;2024-03-06T07:26:29;99951.95;;;2.29;84.02
63447;BME280;49577;49.872;6.190;2024-03-06T07:28:55;99950.41;;;2.28;83.44
63447;BME280;49577;49.872;6.190;2024-03-06T07:31:20;99953.48;;;2.23;83.50
63447;BME280;49577;49.872;6.190;2024-03-06T07:33:45;99955.89;;;2.22;83.84
63447;BME280;49577;49.872;6.190;2024-03-06T07:36:11;99959.49;;;2.23;83.90
63447;BME280;49577;49.872;6.190;2024-03-06T07:38:36;99966.14;;;2.19;83.28
63447;BME280;49577;49.872;6.190;2024-03-06T07:41:01;99970.27;;;2.12;83.25
63447;BME280;49577;49.872;6.190;2024-03-06T07:43:27;99972.21;;;2.10;83.84
63447;BME280;49577;49.872;6.190;2024-03-06T07:45:52;99976.95;;;2.13;84.12
63447;BME280;49577;49.872;6.190;2024-03-06T07:48:17;99974.83;;;2.16;84.06
63447;BME280;49577;49.872;6.190;2024-03-06T07:50:42;99977.36;;;2.18;84.16
63447;BME280;49577;49.872;6.190;2024-03-06T07:53:08;99974.71;;;2.21;84.26
63447;BME280;49577;49.872;6.190;2024-03-06T07:55:33;99975.95;;;2.19;84.00
63447;BME280;49577;49.872;6.190;2024-03-06T07:57:58;99975.27;;;2.19;84.60
63447;BME280;49577;49.872;6.190;2024-03-06T08:00:23;99980.40;;;2.28;84.89
63447;BME280;49577;49.872;6.190;2024-03-06T08:02:49;99978.27;;;2.39;84.62
63447;BME280;49577;49.872;6.190;2024-03-06T08:05:15;99981.25;;;2.44;84.33
63447;BME280;49577;49.872;6.190;2024-03-06T08:07:40;99980.69;;;2.53;84.54
63447;BME280;49577;49.872;6.190;2024-03-06T08:10:10;99979.98;;;2.68;84.76
63447;BME280;49577;49.872;6.190;2024-03-06T08:12:38;99979.06;;;2.84;84.54
63447;BME280;49577;49.872;6.190;2024-03-06T08:15:04;99977.70;;;2.98;84.30
63447;BME280;49577;49.872;6.190;2024-03-06T08:17:29;99978.60;;;3.09;83.93
63447;BME280;49577;49.872;6.190;2024-03-06T08:19:54;99986.11;;;3.19;83.62
63447;BME280;49577;49.872;6.190;2024-03-06T08:22:20;99985.80;;;3.24;83.31
63447;BME280;49577;49.872;6.190;2024-03-06T08:24:45;99987.23;;;3.29;82.97
63447;BME280;49577;49.872;6.190;2024-03-06T08:27:10;99983.86;;;3.33;82.60
63447;BME280;49577;49.872;6.190;2024-03-06T08:29:36;99990.26;;;3.38;82.62
63447;BME280;49577;49.872;6.190;2024-03-06T08:32:01;99990.70;;;3.41;81.79
63447;BME280;49577;49.872;6.190;2024-03-06T08:34:26;99991.79;;;3.39;81.57
63447;BME280;49577;49.872;6.190;2024-03-06T08:36:51;99993.41;;;3.37;81.31
63447;BME280;49577;49.872;6.190;2024-03-06T08:39:18;99991.16;;;3.37;81.49
63447;BME280;49577;49.872;6.190;2024-03-06T08:41:43;99995.81;;;3.37;80.87
63447;BME280;49577;49.872;6.190;2024-03-06T08:44:09;99996.85;;;3.30;80.83
63447;BME280;49577;49.872;6.190;2024-03-06T08:46:34;99999.21;;;3.26;80.97
63447;BME280;49577;49.872;6.190;2024-03-06T08:48:59;100001.10;;;3.33;81.56
63447;BME280;49577;49.872;6.190;2024-03-06T08:51:24;100005.64;;;3.44;81.52
63447;BME280;49577;49.872;6.190;2024-03-06T08:53:50;100009.33;;;3.54;81.61
63447;BME280;49577;49.872;6.190;2024-03-06T08:56:16;100013.70;;;3.65;81.26
63447;BME280;49577;49.872;6.190;2024-03-06T08:58:41;100015.27;;;3.70;80.78
63447;BME280;49577;49.872;6.190;2024-03-06T09:01:07;100015.17;;;3.74;80.78
63447;BME280;49577;49.872;6.190;2024-03-06T09:03:32;100013.91;;;3.82;81.37
63447;BME280;49577;49.872;6.190;2024-03-06T09:05:57;100020.27;;;3.95;81.44
63447;BME280;49577;49.872;6.190;2024-03-06T09:08:24;100019.13;;;4.05;81.18
63447;BME280;49577;49.872;6.190;2024-03-06T09:10:49;100020.20;;;4.15;81.36
63447;BME280;49577;49.872;6.190;2024-03-06T09:13:15;100020.05;;;4.32;81.28
63447;BME280;49577;49.872;6.190;2024-03-06T09:15:40;100022.11;;;4.43;80.63
63447;BME280;49577;49.872;6.190;2024-03-06T09:18:05;100028.27;;;4.51;80.31
63447;BME280;49577;49.872;6.190;2024-03-06T09:20:31;100026.66;;;4.58;80.17
63447;BME280;49577;49.872;6.190;2024-03-06T09:22:56;100029.23;;;4.65;79.77
63447;BME280;49577;49.872;6.190;2024-03-06T09:25:24;100031.95;;;4.71;80.02
63447;BME280;49577;49.872;6.190;2024-03-06T09:27:49;100034.29;;;4.85;80.15
63447;BME280;49577;49.872;6.190;2024-03-06T09:30:14;100034.84;;;4.95;79.49
63447;BME280;49577;49.872;6.190;2024-03-06T09:32:40;100040.79;;;5.03;79.42
63447;BME280;49577;49.872;6.190;2024-03-06T09:35:07;100038.67;;;5.15;79.51
63447;BME280;49577;49.872;6.190;2024-03-06T09:37:32;100039.69;;;5.25;79.44
63447;BME280;49577;49.872;6.190;2024-03-06T09:39:57;100037.35;;;5.38;79.43
63447;BME280;49577;49.872;6.190;2024-03-06T09:42:22;100038.60;;;5.57;79.15
63447;BME280;49577;49.872;6.190;2024-03-06T09:44:48;100037.10;;;5.70;78.58
63447;BME280;49577;49.872;6.190;2024-03-06T09:47:14;100042.87;;;5.83;78.32
63447;BME280;49577;49.872;6.190;2024-03-06T09:49:42;100044.30;;;5.97;78.06
63447;BME280;49577;49.872;6.190;2024-03-06T09:52:08;100045.83;;;6.12;77.69
63447;BME280;49577;49.872;6.190;2024-03-06T09:54:35;100048.61;;;6.25;77.27
63447;BME280;49577;49.872;6.190;2024-03-06T09:57:00;100050.11;;;6.32;76.77
63447;BME280;49577;49.872;6.190;2024-03-06T09:59:26;100053.65;;;6.44;76.81
63447;BME280;49577;49.872;6.190;2024-03-06T10:01:56;100053.19;;;6.60;76.50
63447;BME280;49577;49.872;6.190;2024-03-06T10:04:25;100046.58;;;6.78;76.23
63447;BME280;49577;49.872;6.190;2024-03-06T10:06:55;100047.10;;;6.95;75.72
63447;BME280;49577;49.872;6.190;2024-03-06T10:09:21;100048.69;;;7.07;75.29
63447;BME280;49577;49.872;6.190;2024-03-06T10:11:46;100050.20;;;7.21;74.94
63447;BME280;49577;49.872;6.190;2024-03-06T10:14:11;100045.26;;;7.30;74.55
63447;BME280;49577;49.872;6.190;2024-03-06T10:16:37;100042.11;;;7.48;74.30
63447;BME280;49577;49.872;6.190;2024-03-06T10:19:14;100046.41;;;7.72;74.10
63447;BME280;49577;49.872;6.190;2024-03-06T10:21:40;100042.47;;;8.18;73.24
63447;BME280;49577;49.872;6.190;2024-03-06T10:24:05;100045.95;;;8.70;72.13
63447;BME280;49577;49.872;6.190;2024-03-06T10:26:31;100044.23;;;9.50;70.73
63447;BME280;49577;49.872;6.190;2024-03-06T10:28:56;100041.52;;;10.81;68.49
63447;BME280;49577;49.872;6.190;2024-03-06T10:31:28;100034.95;;;12.38;65.09
63447;BME280;49577;49.872;6.190;2024-03-06T10:33:53;100036.41;;;13.52;63.00
63447;BME280;49577;49.872;6.190;2024-03-06T10:36:18;100038.30;;;14.31;60.77
63447;BME280;49577;49.872;6.190;2024-03-06T10:38:44;100031.97;;;14.94;55.88
63447;BME280;49577;49.872;6.190;2024-03-06T10:41:10;100031.33;;;15.33;55.60
63447;BME280;49577;49.872;6.190;2024-03-06T10:43:38;100030.03;;;16.77;54.20
63447;BME280;49577;49.872;6.190;2024-03-06T10:46:06;100031.10;;;18.10;50.08
63447;BME280;49577;49.872;6.190;2024-03-06T10:48:31;100031.22;;;18.38;47.36
63447;BME280;49577;49.872;6.190;2024-03-06T10:50:57;100031.19;;;18.87;45.63
63447;BME280;49577;49.872;6.190;2024-03-06T10:53:22;100025.86;;;19.02;45.16
63447;BME280;49577;49.872;6.190;2024-03-06T10:55:48;100025.56;;;19.66;45.19
63447;BME280;49577;49.872;6.190;2024-03-06T10:58:14;100021.11;;;20.56;43.99
63447;BME280;49577;49.872;6.190;2024-03-06T11:00:41;100020.05;;;21.33;42.20
63447;BME280;49577;49.872;6.190;2024-03-06T11:03:07;100017.92;;;22.03;40.65
63447;BME280;49577;49.872;6.190;2024-03-06T11:05:36;100017.34;;;22.48;39.26
63447;BME280;49577;49.872;6.190;2024-03-06T11:08:04;100012.94;;;22.44;38.94
63447;BME280;49577;49.872;6.190;2024-03-06T11:10:33;100013.68;;;22.02;38.85
63447;BME280;49577;49.872;6.190;2024-03-06T11:12:59;100011.86;;;21.57;38.91
63447;BME280;49577;49.872;6.190;2024-03-06T11:15:25;100018.45;;;21.50;38.97
63447;BME280;49577;49.872;6.190;2024-03-06T11:17:50;100014.76;;;21.57;38.08
63447;BME280;49577;49.872;6.190;2024-03-06T11:20:16;100016.87;;;21.69;37.80
63447;BME280;49577;49.872;6.190;2024-03-06T11:26:05;100012.65;;;21.89;37.49
63447;BME280;49577;49.872;6.190;2024-03-06T11:28:19;100014.72;;;22.05;36.69
63447;BME280;49577;49.872;6.190;2024-03-06T11:30:45;100014.97;;;22.12;36.45
63447;BME280;49577;49.872;6.190;2024-03-06T11:33:12;100018.90;;;22.11;35.99
63447;BME280;49577;49.872;6.190;2024-03-06T11:35:41;100017.48;;;22.13;36.15
63447;BME280;49577;49.872;6.190;2024-03-06T11:38:09;100016.05;;;22.28;35.61
63447;BME280;49577;49.872;6.190;2024-03-06T11:40:42;100018.50;;;22.46;35.84
63447;BME280;49577;49.872;6.190;2024-03-06T11:43:23;100018.96;;;22.86;35.42
63447;BME280;49577;49.872;6.190;2024-03-06T11:45:49;100013.45;;;23.19;34.47
63447;BME280;49577;49.872;6.190;2024-03-06T11:48:14;100014.58;;;22.49;34.71
63447;BME280;49577;49.872;6.190;2024-03-06T11:50:42;100016.39;;;21.09;35.67
63447;BME280;49577;49.872;6.190;2024-03-06T11:53:08;100015.73;;;19.54;37.44
63447;BME280;49577;49.872;6.190;2024-03-06T11:55:33;100023.59;;;18.21;39.59
63447;BME280;49577;49.872;6.190;2024-03-06T11:57:58;100023.20;;;17.01;41.63
63447;BME280;49577;49.872;6.190;2024-03-06T12:00:24;100021.25;;;16.07;43.34
63447;BME280;49577;49.872;6.190;2024-03-06T12:02:50;100020.27;;;15.42;44.73
63447;BME280;49577;49.872;6.190;2024-03-06T12:05:15;100020.30;;;15.37;45.60
63447;BME280;49577;49.872;6.190;2024-03-06T12:07:59;100017.30;;;15.42;45.93
63447;BME280;49577;49.872;6.190;2024-03-06T12:10:24;100016.41;;;15.26;46.22
63447;BME280;49577;49.872;6.190;2024-03-06T12:12:50;100018.70;;;15.19;46.37
63447;BME280;49577;49.872;6.190;2024-03-06T12:15:16;100015.30;;;14.82;47.11
63447;BME280;49577;49.872;6.190;2024-03-06T12:17:44;100016.96;;;15.00;47.27
63447;BME280;49577;49.872;6.190;2024-03-06T12:20:13;100013.00;;;15.82;46.43
63447;BME280;49577;49.872;6.190;2024-03-06T12:22:54;100012.11;;;16.68;45.38
63447;BME280;49577;49.872;6.190;2024-03-06T12:25:24;100010.48;;;16.84;45.49
63447;BME280;49577;49.872;6.190;2024-03-06T12:27:51;100006.69;;;18.02;44.10
63447;BME280;49577;49.872;6.190;2024-03-06T12:30:20;100004.27;;;19.00;41.98
63447;BME280;49577;49.872;6.190;2024-03-06T12:32:58;100000.70;;;19.64;39.61
63447;BME280;49577;49.872;6.190;2024-03-06T12:35:24;99999.39;;;19.70;38.33
63447;BME280;49577;49.872;6.190;2024-03-06T12:37:50;100005.05;;;19.05;39.10
63447;BME280;49577;49.872;6.190;2024-03-06T12:40:15;100005.42;;;18.42;40.01
63447;BME280;49577;49.872;6.190;2024-03-06T12:42:41;100006.31;;;18.26;39.78
63447;BME280;49577;49.872;6.190;2024-03-06T12:45:06;100004.55;;;18.16;39.23
63447;BME280;49577;49.872;6.190;2024-03-06T12:47:32;100003.63;;;18.07;38.69
63447;BME280;49577;49.872;6.190;2024-03-06T12:49:57;100001.33;;;18.42;37.64
63447;BME280;49577;49.872;6.190;2024-03-06T12:52:23;100001.22;;;18.64;37.53
63447;BME280;49577;49.872;6.190;2024-03-06T12:54:48;99994.85;;;18.66;37.49
63447;BME280;49577;49.872;6.190;2024-03-06T12:57:14;99989.72;;;18.64;37.11
63447;BME280;49577;49.872;6.190;2024-03-06T12:59:39;99992.23;;;18.33;37.23
63447;BME280;49577;49.872;6.190;2024-03-06T13:02:05;99993.15;;;17.95;37.60